« 定点 富山空港 2014/2/2 sun | トップページ | 趣味的航空路誌改訂情報 2014/2/6 thu »

2014/02/03

定点 富山空港 2014/2/3 mon

所要をしていて、ふと気がつくと風が変わっていた。チョット気になって河原に。

RJNT 030500Z 34010KT 310V010 9999 FEW015 BKN060 14/08 Q1003

20140203_rjnt_00ja15an

20140203_rjnt_01ja15an

ADO121 RJNT-RJCC JA15AN B737-781

SPECI が出ないのだが、どんどん視程が落ちてくるのが判る。海霧のような雲に包まれるような感じだ。風も北に振っているし・・・

20140203_rjnt_02ja807a

ようやく、見えた!

20140203_rjnt_03ja807a

もう、こんな場所。

20140203_rjnt_04ja807a

低い!

20140203_rjnt_05ja807a

捻る、捻る

20140203_rjnt_06ja807a

でも、ピッタリRWにアラインして・・

20140203_rjnt_07ja807a

20140203_rjnt_08ja807a

ANA885 RJTT-RJNT JA807A B787-881

ANA683 として広島に向かっていたのだが、広島空港霧で福岡にダイバートしたようだ。福岡からも ANA683 で羽田に回航されたので、関係するアクチャルの時刻が、ややこしいことになっている。

RJNT 030600Z 03010KT 6000 BR FEW006 BKN009 11/09 Q1004

20140203_rjnt_09ja807a

20140203_rjnt_10ja807a

20140203_rjnt_11ja807a

20140203_rjnt_12ja807a

ANA888 RJNT-RJTT JA807A B787-881

20140203_rjnt_13ja8291

20140203_rjnt_14ja8291

20140203_rjnt_15ja8291

ANA887 RJTT-RJNT JA8291 B767-381

RJNT 030721Z 01007KT 330V060 7000 SHRA FEW004 BKN006 08/06 Q1005 RMK 1ST004 7CU006 A2969

           /882 JA8971
ANA881/884 JA8322
ANA883/886 JA816A
ANA885/888 JA807A
ANA887/890 JA8291
ANA889/892 JA8669
ANA891       JA8290

ADO120/121 JA15AN

CAL170/171 B-18610

|

« 定点 富山空港 2014/2/2 sun | トップページ | 趣味的航空路誌改訂情報 2014/2/6 thu »

富山空港」カテゴリの記事

コメント

コメントを書く



(ウェブ上には掲載しません)


コメントは記事投稿者が公開するまで表示されません。



トラックバック


この記事へのトラックバック一覧です: 定点 富山空港 2014/2/3 mon:

« 定点 富山空港 2014/2/2 sun | トップページ | 趣味的航空路誌改訂情報 2014/2/6 thu »